Time;durP1;ratioP1;P1;durP2;ratioP2;P2;SDS_P1;SDS_P2;PMS_P1;PMS_P2;Temp;Humidity;BMP_temperature;BMP_pressure;BME280_temperature;BME280_humidity;BME280_pressure;Samples;Min_cycle;Max_cycle;Signal;HPM_P1;HPM_P2
2023/03/10 03:01:06;;;;;;;2.53;2.33;;;9.60;99.90;;;;;;5757681;23;20705;-79
2023/03/10 03:03:37;;;;;;;2.57;2.37;;;9.60;99.90;;;;;;4965020;28;20233;-79
2023/03/10 03:06:05;;;;;;;4.87;4.57;;;9.60;99.90;;;;;;4965442;28;20197;-79
2023/03/10 03:08:32;;;;;;;3.80;3.60;;;9.60;99.90;;;;;;4969279;28;20202;-80
2023/03/10 03:11:01;;;;;;;3.60;3.30;;;9.60;99.90;;;;;;4967949;28;20230;-78
2023/03/10 03:13:29;;;;;;;5.27;4.90;;;9.60;99.90;;;;;;4959114;28;20635;-79
2023/03/10 03:15:56;;;;;;;2.63;2.43;;;9.60;99.90;;;;;;4963746;28;20203;-79
2023/03/10 03:18:25;;;;;;;4.93;4.63;;;9.60;99.90;;;;;;4968511;28;20662;-79
2023/03/10 03:20:51;;;;;;;3.07;2.87;;;9.50;99.90;;;;;;4956770;28;20225;-80
2023/03/10 03:23:19;;;;;;;2.40;2.20;;;9.50;99.90;;;;;;4956714;28;20736;-80
2023/03/10 03:25:46;;;;;;;2.50;2.40;;;9.50;99.90;;;;;;4973032;28;20194;-78
2023/03/10 03:28:18;;;;;;;4.80;4.60;;;9.50;99.90;;;;;;4961426;28;20210;-79
2023/03/10 03:30:46;;;;;;;3.23;3.03;;;9.50;99.90;;;;;;4961878;28;20227;-79
2023/03/10 03:33:13;;;;;;;2.23;2.13;;;9.50;99.90;;;;;;4961085;28;20290;-79
2023/03/10 03:35:44;;;;;;;2.60;2.50;;;9.50;99.90;;;;;;4966022;28;20211;-79
2023/03/10 03:38:11;;;;;;;2.30;2.20;;;9.60;99.90;;;;;;4966726;28;20198;-79
2023/03/10 03:40:39;;;;;;;3.37;3.17;;;9.60;99.90;;;;;;4958858;28;20289;-79
2023/03/10 03:43:09;;;;;;;2.00;1.90;;;9.60;99.90;;;;;;4969641;28;20207;-86
2023/03/10 03:45:36;;;;;;;1.80;1.80;;;9.70;99.90;;;;;;4957862;28;20257;-79
2023/03/10 03:48:04;;;;;;;2.17;2.07;;;9.70;99.90;;;;;;4958824;28;20205;-78
2023/03/10 03:50:33;;;;;;;1.87;1.77;;;9.70;99.90;;;;;;4960073;28;20220;-79
2023/03/10 03:53:08;;;;;;;13.23;12.43;;;9.70;99.90;;;;;;4959709;28;20266;-83
2023/03/10 03:55:35;;;;;;;4.77;4.50;;;9.70;99.90;;;;;;4953638;28;20202;-85
2023/03/10 03:58:02;;;;;;;9.07;8.47;;;9.70;99.90;;;;;;4960384;28;20571;-82
2023/03/10 04:00:29;;;;;;;8.00;7.33;;;9.70;99.90;;;;;;4947182;28;20202;-82
2023/03/10 04:03:02;;;;;;;7.40;7.00;;;9.70;99.90;;;;;;4945646;28;20204;-85
2023/03/10 04:05:31;;;;;;;6.80;6.40;;;9.70;99.90;;;;;;4953986;28;20199;-84
2023/03/10 04:07:58;;;;;;;2.93;2.73;;;9.70;99.90;;;;;;4954280;28;20208;-83
2023/03/10 04:10:29;;;;;;;2.30;2.10;;;9.70;99.90;;;;;;4950670;28;20227;-84
2023/03/10 04:12:56;;;;;;;5.07;4.70;;;9.70;99.90;;;;;;4955801;28;20211;-80
2023/03/10 04:15:25;;;;;;;5.30;4.90;;;9.70;99.90;;;;;;4964218;28;20598;-79
2023/03/10 04:17:52;;;;;;;3.77;3.17;;;9.70;99.90;;;;;;4968162;28;20190;-83
2023/03/10 04:20:19;;;;;;;3.33;2.20;;;9.70;99.90;;;;;;4963704;28;20687;-83
2023/03/10 04:22:49;;;;;;;2.10;2.00;;;9.80;99.90;;;;;;4964316;28;20199;-85
2023/03/10 04:25:18;;;;;;;4.43;4.03;;;9.80;99.90;;;;;;4973146;28;20229;-84
2023/03/10 04:27:47;;;;;;;2.40;2.20;;;9.80;99.90;;;;;;4952223;28;20202;-84
2023/03/10 04:30:14;;;;;;;2.23;2.03;;;9.80;99.90;;;;;;4949683;28;20291;-83
2023/03/10 04:32:45;;;;;;;4.67;4.37;;;9.70;99.90;;;;;;4963485;28;20225;-81
2023/03/10 04:35:13;;;;;;;3.70;3.50;;;9.60;99.90;;;;;;4969450;28;20203;-81
2023/03/10 04:37:43;;;;;;;6.60;6.10;;;9.60;99.90;;;;;;4972794;28;20201;-81
2023/03/10 04:40:13;;;;;;;15.53;14.47;;;9.60;99.90;;;;;;4970187;28;20199;-80
2023/03/10 04:42:41;;;;;;;7.33;6.73;;;9.50;99.90;;;;;;4963868;28;20224;-82
2023/03/10 04:45:11;;;;;;;2.23;2.03;;;9.60;99.90;;;;;;4952825;28;20203;-80
2023/03/10 04:47:41;;;;;;;6.47;2.30;;;9.50;99.90;;;;;;4967485;28;20677;-79
2023/03/10 04:50:10;;;;;;;2.83;2.60;;;9.60;99.90;;;;;;4968236;28;20222;-78
2023/03/10 04:52:37;;;;;;;3.83;3.53;;;9.60;99.90;;;;;;4965853;28;20237;-79
2023/03/10 04:55:04;;;;;;;4.07;3.77;;;9.60;99.90;;;;;;4971766;28;20212;-79
2023/03/10 04:57:33;;;;;;;3.20;2.90;;;9.60;99.90;;;;;;4967067;28;20750;-79
2023/03/10 04:59:59;;;;;;;3.60;3.30;;;9.60;99.90;;;;;;4969031;28;20254;-79
2023/03/10 05:02:28;;;;;;;2.30;2.10;;;9.50;99.90;;;;;;4975558;28;20226;-79
2023/03/10 05:04:55;;;;;;;2.70;2.50;;;9.50;99.90;;;;;;4970204;28;20224;-78
2023/03/10 05:07:22;;;;;;;2.73;2.43;;;9.50;99.90;;;;;;4968445;28;20207;-78
2023/03/10 05:09:51;;;;;;;3.80;3.50;;;9.50;99.90;;;;;;4972559;28;20290;-79
2023/03/10 05:12:18;;;;;;;3.70;3.50;;;9.50;99.90;;;;;;4974525;28;20604;-77
2023/03/10 05:14:45;;;;;;;3.60;2.87;;;9.40;99.90;;;;;;4972482;28;20209;-79
2023/03/10 05:17:12;;;;;;;2.57;2.47;;;9.40;99.90;;;;;;4964485;28;20202;-79
2023/03/10 05:19:40;;;;;;;6.10;5.70;;;9.40;99.90;;;;;;4972270;28;20206;-79
2023/03/10 05:22:10;;;;;;;3.00;2.73;;;9.50;99.90;;;;;;4964580;28;20226;-77
2023/03/10 05:24:37;;;;;;;2.73;2.53;;;9.50;99.90;;;;;;4958875;28;20691;-77
2023/03/10 05:27:04;;;;;;;3.60;3.40;;;9.60;99.90;;;;;;4952402;28;20250;-78
2023/03/10 05:29:31;;;;;;;4.20;4.00;;;9.70;99.90;;;;;;4958534;28;20693;-78
2023/03/10 05:32:07;;;;;;;8.67;8.10;;;9.70;99.90;;;;;;4953569;28;20226;-78
2023/03/10 05:34:37;;;;;;;7.40;6.90;;;9.70;99.90;;;;;;4961490;28;20198;-78
2023/03/10 05:37:06;;;;;;;3.77;3.47;;;9.70;99.90;;;;;;4975621;28;20189;-78
2023/03/10 05:39:33;;;;;;;3.47;3.27;;;9.70;99.90;;;;;;4966008;28;20194;-78
2023/03/10 05:42:04;;;;;;;3.23;2.97;;;9.70;99.90;;;;;;4964047;28;20315;-78
2023/03/10 05:44:33;;;;;;;3.47;3.27;;;9.80;99.90;;;;;;4970392;28;20245;-78
2023/03/10 05:47:02;;;;;;;2.20;2.10;;;9.70;99.90;;;;;;4969071;28;20209;-79
2023/03/10 05:49:29;;;;;;;3.40;3.20;;;9.70;99.90;;;;;;4959146;28;20205;-78
2023/03/10 05:51:57;;;;;;;2.10;2.00;;;9.70;99.90;;;;;;4971274;28;20215;-79
2023/03/10 05:54:26;;;;;;;2.40;2.00;;;9.70;99.90;;;;;;4964565;28;20205;-78
2023/03/10 05:56:53;;;;;;;2.13;2.03;;;9.70;99.90;;;;;;4964325;28;20209;-77
2023/03/10 05:59:22;;;;;;;2.77;2.20;;;9.70;99.90;;;;;;4965914;28;20237;-79
2023/03/10 06:01:50;;;;;;;2.60;2.40;;;9.60;99.90;;;;;;4960868;28;20308;-79
2023/03/10 06:04:18;;;;;;;3.57;3.27;;;9.60;99.90;;;;;;4966507;28;20199;-78
2023/03/10 06:06:44;;;;;;;2.30;2.20;;;9.60;99.90;;;;;;4958234;28;20202;-78
2023/03/10 06:09:11;;;;;;;9.50;8.90;;;9.60;99.90;;;;;;4963611;28;20255;-79
2023/03/10 06:11:39;;;;;;;2.83;2.63;;;9.60;99.90;;;;;;4972021;28;20218;-78
2023/03/10 06:14:06;;;;;;;3.10;2.80;;;9.50;99.90;;;;;;4965603;28;20231;-78
2023/03/10 06:16:33;;;;;;;8.30;7.80;;;9.50;99.90;;;;;;4976873;28;20229;-78
2023/03/10 06:19:00;;;;;;;2.60;1.90;;;9.50;99.90;;;;;;4968810;28;20207;-79
2023/03/10 06:21:28;;;;;;;2.03;1.93;;;9.40;99.90;;;;;;4965464;28;20217;-80
2023/03/10 06:23:55;;;;;;;8.70;8.20;;;9.40;99.90;;;;;;4964999;28;20229;-78
2023/03/10 06:26:23;;;;;;;8.90;8.30;;;9.40;99.90;;;;;;4965106;28;20210;-79
2023/03/10 06:28:51;;;;;;;9.17;8.67;;;9.40;99.90;;;;;;4970441;28;20273;-79
2023/03/10 06:31:19;;;;;;;9.63;9.03;;;9.40;99.90;;;;;;4971719;28;20254;-78
2023/03/10 06:33:47;;;;;;;8.73;8.23;;;9.40;99.90;;;;;;4972119;28;20266;-79
2023/03/10 06:36:14;;;;;;;9.17;8.57;;;9.40;99.90;;;;;;4963927;28;20241;-82
2023/03/10 06:38:41;;;;;;;8.73;8.27;;;9.40;99.90;;;;;;4969529;28;20201;-80
2023/03/10 06:41:09;;;;;;;8.70;8.20;;;9.50;99.90;;;;;;4969698;28;20221;-80
2023/03/10 06:43:36;;;;;;;9.10;8.60;;;9.50;99.90;;;;;;4967177;28;20265;-80
2023/03/10 06:46:07;;;;;;;9.27;8.77;;;9.50;99.90;;;;;;4968801;28;20252;-81
2023/03/10 06:48:35;;;;;;;9.70;9.10;;;9.70;99.90;;;;;;4965461;28;20203;-81
2023/03/10 06:51:06;;;;;;;9.10;8.60;;;9.80;99.90;;;;;;4965036;28;20228;-85
2023/03/10 06:53:33;;;;;;;9.27;8.77;;;9.90;99.90;;;;;;4971052;28;20212;-81
2023/03/10 06:56:02;;;;;;;9.40;8.90;;;10.10;99.90;;;;;;4955863;28;20207;-78
2023/03/10 06:58:31;;;;;;;9.00;8.50;;;10.30;99.90;;;;;;4964003;28;20286;-78
2023/03/10 07:00:58;;;;;;;8.67;8.17;;;10.40;99.90;;;;;;4964940;28;20333;-78
2023/03/10 07:03:27;;;;;;;9.00;8.50;;;10.60;99.90;;;;;;4961811;28;20210;-78
2023/03/10 07:05:54;;;;;;;9.67;9.17;;;10.80;99.90;;;;;;4962830;28;20204;-78
2023/03/10 07:08:21;;;;;;;9.60;9.10;;;10.80;99.90;;;;;;4959070;28;20209;-78
2023/03/10 07:10:48;;;;;;;8.90;8.40;;;10.80;99.90;;;;;;4967654;28;20313;-78
2023/03/10 07:13:16;;;;;;;9.47;8.97;;;10.80;99.90;;;;;;4968291;28;20208;-79
2023/03/10 07:15:43;;;;;;;9.40;8.90;;;10.90;99.90;;;;;;4959383;28;20257;-78
2023/03/10 07:18:10;;;;;;;9.10;8.60;;;10.90;99.90;;;;;;4965537;28;20300;-84
2023/03/10 07:20:41;;;;;;;9.20;8.70;;;10.90;99.90;;;;;;4965838;28;20296;-84
2023/03/10 07:23:08;;;;;;;9.60;9.00;;;10.90;99.90;;;;;;4962656;28;20215;-84
2023/03/10 07:25:35;;;;;;;9.57;8.97;;;11.00;99.90;;;;;;4961172;28;20218;-83
2023/03/10 07:28:03;;;;;;;8.93;8.43;;;11.00;99.90;;;;;;4968022;28;20591;-83
2023/03/10 07:30:30;;;;;;;8.90;8.40;;;11.00;99.90;;;;;;4963705;28;20565;-83
2023/03/10 07:32:56;;;;;;;8.70;8.10;;;11.00;99.90;;;;;;4968197;28;20252;-82
2023/03/10 07:35:23;;;;;;;9.03;8.50;;;11.10;99.90;;;;;;4968212;28;20216;-83
2023/03/10 07:37:51;;;;;;;8.10;7.70;;;11.20;99.90;;;;;;4960374;28;20256;-83
2023/03/10 07:40:21;;;;;;;8.23;7.73;;;11.30;99.90;;;;;;4968278;28;20201;-83
2023/03/10 07:42:48;;;;;;;8.27;7.77;;;11.40;99.90;;;;;;4960019;28;20194;-83
2023/03/10 07:45:16;;;;;;;7.97;7.47;;;11.40;99.90;;;;;;4964124;28;20232;-83
2023/03/10 07:47:43;;;;;;;8.80;8.20;;;11.50;99.90;;;;;;4964602;28;20233;-82
2023/03/10 07:50:11;;;;;;;8.93;8.43;;;11.50;99.90;;;;;;4958072;28;20213;-83
2023/03/10 07:52:38;;;;;;;8.60;8.10;;;11.50;99.90;;;;;;4964607;28;20310;-83
2023/03/10 07:55:07;;;;;;;8.10;7.50;;;11.50;99.90;;;;;;4968543;28;20216;-84
2023/03/10 07:57:33;;;;;;;8.20;7.70;;;11.50;99.90;;;;;;4959072;28;20202;-83
2023/03/10 08:00:00;;;;;;;7.80;7.40;;;11.50;99.90;;;;;;4972678;28;20217;-83
2023/03/10 08:02:27;;;;;;;8.57;7.90;;;11.50;99.90;;;;;;4969326;28;20231;-83
2023/03/10 08:04:54;;;;;;;8.60;8.00;;;11.50;99.90;;;;;;4963601;28;20336;-83
2023/03/10 08:07:21;;;;;;;8.60;7.90;;;11.50;99.90;;;;;;4970777;28;20217;-83
2023/03/10 08:09:50;;;;;;;7.50;7.10;;;11.40;99.90;;;;;;4967793;28;20199;-83
2023/03/10 08:12:19;;;;;;;8.23;7.67;;;11.50;99.90;;;;;;4961989;28;20225;-83
2023/03/10 08:14:46;;;;;;;8.07;7.67;;;11.50;99.90;;;;;;4976024;28;20202;-83
2023/03/10 08:17:13;;;;;;;8.00;7.60;;;11.50;99.90;;;;;;4968951;28;20203;-83
2023/03/10 08:19:40;;;;;;;9.10;8.50;;;11.60;99.90;;;;;;4962423;28;20256;-83
2023/03/10 08:22:08;;;;;;;9.13;8.53;;;11.60;99.90;;;;;;4964844;28;20217;-83
2023/03/10 08:24:36;;;;;;;9.10;8.60;;;11.50;99.90;;;;;;4964327;28;20203;-83
2023/03/10 08:27:04;;;;;;;7.10;6.63;;;11.40;99.90;;;;;;4967746;28;20264;-83
2023/03/10 08:29:32;;;;;;;8.20;7.70;;;11.30;99.90;;;;;;4955873;28;20203;-83
2023/03/10 08:31:59;;;;;;;8.07;7.67;;;11.30;99.90;;;;;;4973615;28;20229;-83
2023/03/10 08:34:25;;;;;;;8.20;7.70;;;11.20;99.90;;;;;;4970763;28;20275;-83
2023/03/10 08:36:52;;;;;;;8.90;8.40;;;11.20;99.90;;;;;;4966049;28;20212;-82
2023/03/10 08:39:19;;;;;;;8.40;7.90;;;11.20;99.90;;;;;;4963634;28;20271;-80
2023/03/10 08:41:48;;;;;;;10.63;10.03;;;11.30;99.90;;;;;;4970412;28;20650;-78
2023/03/10 08:44:16;;;;;;;8.90;8.40;;;11.60;99.90;;;;;;4968008;28;20303;-78
2023/03/10 08:46:47;;;;;;;9.10;8.60;;;11.90;99.90;;;;;;4966954;28;20207;-79
2023/03/10 08:49:15;;;;;;;8.63;8.17;;;12.10;99.90;;;;;;4969793;28;20673;-79
2023/03/10 08:51:42;;;;;;;8.50;8.00;;;12.10;99.90;;;;;;4970656;28;20225;-78
2023/03/10 08:54:17;;;;;;;8.87;8.37;;;12.20;99.90;;;;;;4967086;28;20212;-79
2023/03/10 08:56:44;;;;;;;8.57;8.07;;;12.20;99.90;;;;;;4962243;28;20201;-79
2023/03/10 08:59:11;;;;;;;8.10;7.70;;;12.30;99.90;;;;;;4969258;28;20683;-79
2023/03/10 09:01:38;;;;;;;7.70;7.30;;;12.30;99.90;;;;;;4966155;28;20240;-79
2023/03/10 09:04:08;;;;;;;7.50;7.10;;;12.40;99.90;;;;;;4962585;28;20205;-78
2023/03/10 09:06:36;;;;;;;8.10;7.60;;;12.40;99.90;;;;;;4962863;28;20557;-80
2023/03/10 09:09:05;;;;;;;8.40;7.90;;;12.40;99.90;;;;;;4968531;28;20209;-79
2023/03/10 09:11:35;;;;;;;8.60;8.00;;;12.40;99.90;;;;;;4968663;28;20668;-79
2023/03/10 09:14:09;;;;;;;8.50;7.90;;;12.30;99.90;;;;;;4961789;28;20265;-76
2023/03/10 09:16:38;;;;;;;9.10;8.60;;;12.50;99.90;;;;;;4974756;28;20202;-85
2023/03/10 09:19:06;;;;;;;8.80;8.30;;;12.90;99.90;;;;;;4951627;28;20204;-84
2023/03/10 09:21:33;;;;;;;8.57;8.00;;;13.40;99.90;;;;;;4949776;28;20246;-83
2023/03/10 09:24:01;;;;;;;8.13;7.63;;;14.10;99.90;;;;;;4957874;28;20208;-82
2023/03/10 09:26:28;;;;;;;6.13;5.63;;;14.70;99.90;;;;;;4951407;28;20202;-84
2023/03/10 09:28:55;;;;;;;3.60;3.40;;;15.10;99.90;;;;;;4949120;28;20209;-85
2023/03/10 09:31:25;;;;;;;4.10;2.10;;;15.50;99.90;;;;;;4956142;28;20385;-87
2023/03/10 09:33:52;;;;;;;5.00;2.20;;;15.60;99.90;;;;;;4954108;28;20230;-87
2023/03/10 09:36:20;;;;;;;2.70;1.90;;;15.60;99.90;;;;;;4952819;28;20228;-86
2023/03/10 09:38:47;;;;;;;3.40;2.17;;;15.30;99.90;;;;;;4952537;28;20218;-87
2023/03/10 09:41:36;;;;;;;2.43;2.10;;;15.10;99.90;;;;;;4951715;28;20222;-86
2023/03/10 09:44:16;;;;;;;2.67;2.10;;;14.60;99.90;;;;;;4949132;28;20239;-87
2023/03/10 09:46:49;;;;;;;3.20;1.97;;;14.30;99.90;;;;;;4955326;28;20660;-86
2023/03/10 09:49:22;;;;;;;4.73;2.07;;;14.10;99.90;;;;;;4947871;29;20236;-86
2023/03/10 09:51:50;;;;;;;6.40;2.10;;;14.20;99.90;;;;;;4954402;28;20250;-87
2023/03/10 09:54:36;;;;;;;2.67;2.13;;;14.10;99.90;;;;;;4950300;28;20199;-86
2023/03/10 09:57:12;;;;;;;2.23;2.00;;;13.90;99.90;;;;;;4952249;28;20203;-86
2023/03/10 09:59:42;;;;;;;2.27;2.00;;;13.70;99.90;;;;;;4951771;28;20229;-84
2023/03/10 10:02:17;;;;;;;2.00;1.90;;;13.80;99.90;;;;;;4949347;28;20233;-84
2023/03/10 10:04:45;;;;;;;2.00;1.90;;;13.80;99.90;;;;;;4952354;28;20260;-84
2023/03/10 10:07:16;;;;;;;2.00;1.90;;;13.90;99.90;;;;;;4944297;28;20606;-83
2023/03/10 10:09:47;;;;;;;6.77;6.27;;;13.80;99.90;;;;;;4951431;28;20267;-84
2023/03/10 10:12:15;;;;;;;5.83;5.43;;;13.80;99.90;;;;;;4946376;28;20260;-84
2023/03/10 10:14:44;;;;;;;5.67;4.83;;;13.80;99.90;;;;;;4952860;28;20324;-84
2023/03/10 10:17:23;;;;;;;4.23;3.93;;;13.80;99.90;;;;;;4948511;28;20206;-84
2023/03/10 10:19:52;;;;;;;2.90;2.30;;;14.10;99.90;;;;;;4953314;28;20214;-84
2023/03/10 10:22:26;;;;;;;2.43;1.90;;;14.30;99.90;;;;;;4947049;28;20222;-78
2023/03/10 10:25:02;;;;;;;2.03;1.90;;;14.20;99.90;;;;;;4953550;28;20246;-78
2023/03/10 10:27:31;;;;;;;2.20;2.00;;;14.40;99.90;;;;;;4944925;28;20213;-78
2023/03/10 10:29:57;;;;;;;1.90;1.80;;;14.40;99.90;;;;;;4949558;28;20252;-78
2023/03/10 10:32:24;;;;;;;2.20;1.80;;;14.40;99.90;;;;;;4947181;28;20229;-78
2023/03/10 10:34:51;;;;;;;1.90;1.80;;;14.40;99.90;;;;;;4952742;28;20569;-78
2023/03/10 10:37:27;;;;;;;1.80;1.70;;;14.60;99.90;;;;;;4952045;28;20202;-78
2023/03/10 10:39:55;;;;;;;1.90;1.80;;;14.60;99.90;;;;;;4951950;28;20652;-77
2023/03/10 10:42:25;;;;;;;2.13;1.93;;;14.60;99.90;;;;;;4944086;28;20276;-78
2023/03/10 10:44:54;;;;;;;2.03;1.90;;;14.50;99.90;;;;;;4953640;28;20204;-78
2023/03/10 10:47:27;;;;;;;2.40;1.90;;;14.30;99.90;;;;;;4946319;28;20204;-78
2023/03/10 10:49:55;;;;;;;9.50;8.90;;;14.00;99.90;;;;;;4954888;28;20204;-78
2023/03/10 10:52:25;;;;;;;8.27;7.87;;;13.90;99.90;;;;;;4947096;28;20218;-78
2023/03/10 10:54:57;;;;;;;5.13;4.87;;;13.80;99.90;;;;;;4953849;28;20202;-78
2023/03/10 10:57:31;;;;;;;3.03;2.00;;;13.80;99.90;;;;;;4948245;28;20225;-79
2023/03/10 11:00:14;;;;;;;2.93;1.90;;;13.60;99.90;;;;;;4946999;28;20215;-77
2023/03/10 11:02:40;;;;;;;3.60;1.90;;;13.50;99.90;;;;;;4963173;28;20253;-78
2023/03/10 11:05:15;;;;;;;2.60;1.90;;;13.30;99.90;;;;;;4947185;28;20744;-78
2023/03/10 11:07:44;;;;;;;3.40;1.90;;;13.40;99.90;;;;;;4958631;28;20210;-78
2023/03/10 11:10:14;;;;;;;2.30;1.67;;;13.50;99.90;;;;;;4960060;28;20207;-78
2023/03/10 11:12:56;;;;;;;2.57;2.00;;;13.70;99.90;;;;;;4966510;28;20600;-78
2023/03/10 11:15:29;;;;;;;2.10;1.70;;;13.80;99.90;;;;;;4964282;28;20201;-78
2023/03/10 11:18:01;;;;;;;2.20;1.80;;;13.90;99.90;;;;;;4963143;28;20282;-78
2023/03/10 11:20:32;;;;;;;3.27;1.77;;;14.00;99.90;;;;;;4968081;28;20563;-78
2023/03/10 11:23:13;;;;;;;2.83;2.00;;;14.10;99.90;;;;;;4958247;28;20196;-78
2023/03/10 11:25:46;;;;;;;3.50;1.90;;;14.40;99.90;;;;;;4954220;28;20197;-78
2023/03/10 11:28:30;;;;;;;3.57;1.80;;;14.60;99.90;;;;;;4972139;28;20200;-78
2023/03/10 11:31:05;;;;;;;5.20;2.27;;;14.60;99.90;;;;;;4965786;28;20705;-78
2023/03/10 11:33:40;;;;;;;2.37;2.20;;;14.30;99.90;;;;;;4956364;28;20786;-79
2023/03/10 11:36:28;;;;;;;1.90;1.80;;;14.00;99.90;;;;;;4953289;28;20199;-78
2023/03/10 11:39:05;;;;;;;3.90;1.87;;;13.80;99.90;;;;;;4956598;28;20212;-78
2023/03/10 11:41:40;;;;;;;1.80;1.70;;;13.60;99.90;;;;;;4967970;28;20224;-78
2023/03/10 11:44:17;;;;;;;2.93;2.00;;;13.60;99.90;;;;;;4956170;28;20232;-78
2023/03/10 11:46:54;;;;;;;2.03;1.90;;;13.60;99.90;;;;;;4970117;28;20242;-78
2023/03/10 11:49:26;;;;;;;1.70;1.60;;;13.60;99.90;;;;;;4963937;28;20212;-78
2023/03/10 11:51:56;;;;;;;2.80;2.10;;;13.60;99.90;;;;;;4957198;28;20256;-78
2023/03/10 11:54:28;;;;;;;2.60;1.80;;;13.50;99.90;;;;;;4966954;28;20196;-78
2023/03/10 11:56:55;;;;;;;2.53;1.70;;;13.40;99.90;;;;;;4955115;28;21003;-78
2023/03/10 11:59:24;;;;;;;2.00;1.80;;;13.50;99.90;;;;;;4958227;28;20199;-78
2023/03/10 12:01:54;;;;;;;2.07;1.87;;;13.40;99.90;;;;;;4962948;28;20291;-78
2023/03/10 12:04:24;;;;;;;2.10;2.00;;;13.40;99.90;;;;;;4970413;28;20208;-79
2023/03/10 12:06:58;;;;;;;2.20;1.80;;;13.20;99.90;;;;;;4970245;28;20202;-78
2023/03/10 12:09:35;;;;;;;2.20;2.00;;;13.10;99.90;;;;;;4963570;28;20199;-78
2023/03/10 12:12:03;;;;;;;1.90;1.80;;;13.00;99.90;;;;;;4958269;28;20282;-78
2023/03/10 12:14:31;;;;;;;1.80;1.70;;;13.00;99.90;;;;;;4960689;28;20194;-79
2023/03/10 12:16:58;;;;;;;1.90;1.80;;;13.00;99.90;;;;;;4959715;28;20664;-78
2023/03/10 12:19:25;;;;;;;2.10;1.90;;;13.10;99.90;;;;;;4962446;28;20622;-79
2023/03/10 12:22:23;;;;;;;1.90;1.77;;;13.20;99.90;;;;;;4967894;28;20223;-78
2023/03/10 12:24:52;;;;;;;2.73;2.00;;;13.40;99.90;;;;;;4966964;28;20205;-78
2023/03/10 12:27:19;;;;;;;2.67;1.90;;;13.60;99.90;;;;;;4962372;28;20243;-78
2023/03/10 12:29:47;;;;;;;4.63;4.23;;;13.90;99.90;;;;;;4968600;28;20205;-78
2023/03/10 12:32:40;;;;;;;4.80;4.50;;;14.10;99.90;;;;;;4961265;28;20235;-78
2023/03/10 12:35:41;;;;;;;4.40;4.20;;;14.00;99.90;;;;;;4958646;28;20302;-79
2023/03/10 12:38:30;;;;;;;4.47;4.17;;;14.20;99.90;;;;;;4959634;28;20291;-78
2023/03/10 12:41:00;;;;;;;4.77;4.43;;;14.20;99.90;;;;;;4972977;28;20700;-78
2023/03/10 12:43:44;;;;;;;2.00;1.90;;;14.20;99.90;;;;;;4966108;28;20696;-78
2023/03/10 12:46:12;;;;;;;1.93;1.60;;;14.20;99.90;;;;;;4964778;28;20204;-78
2023/03/10 12:48:44;;;;;;;4.20;3.73;;;13.90;99.90;;;;;;4962823;28;20201;-78
2023/03/10 12:51:14;;;;;;;4.20;4.00;;;13.60;99.90;;;;;;4970713;28;20213;-78
2023/03/10 12:53:49;;;;;;;6.97;6.47;;;13.40;99.90;;;;;;4963678;28;20217;-78
2023/03/10 12:56:25;;;;;;;7.60;7.10;;;13.30;99.90;;;;;;4967611;28;20207;-83
2023/03/10 12:58:58;;;;;;;6.97;6.67;;;13.30;99.90;;;;;;4959819;28;20200;-78
2023/03/10 13:01:31;;;;;;;7.40;6.90;;;13.30;99.90;;;;;;4968692;28;20274;-78
2023/03/10 13:03:58;;;;;;;6.77;6.47;;;13.20;99.90;;;;;;4970531;28;20239;-78
2023/03/10 13:06:32;;;;;;;7.07;6.70;;;13.10;99.90;;;;;;4963101;28;20673;-78
2023/03/10 13:09:09;;;;;;;7.13;6.73;;;13.00;99.90;;;;;;4975764;28;21908;-78
2023/03/10 13:11:41;;;;;;;8.53;8.03;;;12.90;99.90;;;;;;4968492;28;20318;-78
2023/03/10 13:14:13;;;;;;;7.13;6.73;;;12.70;99.90;;;;;;4971292;28;20223;-78
2023/03/10 13:16:40;;;;;;;7.60;7.07;;;12.60;99.90;;;;;;4964851;28;20202;-78
2023/03/10 13:19:07;;;;;;;7.73;7.33;;;12.60;99.90;;;;;;4966467;28;20198;-78
2023/03/10 13:21:36;;;;;;;7.40;7.00;;;12.50;99.90;;;;;;4965400;28;20224;-83
2023/03/10 13:24:24;;;;;;;7.60;7.20;;;12.50;99.90;;;;;;4954070;28;20226;-83
2023/03/10 13:27:05;;;;;;;7.60;7.20;;;12.50;99.90;;;;;;4955653;28;20584;-84
2023/03/10 13:29:32;;;;;;;8.00;7.60;;;12.30;99.90;;;;;;4956146;28;20217;-84
2023/03/10 13:31:58;;;;;;;8.37;7.90;;;12.30;99.90;;;;;;4955736;28;20305;-84
2023/03/10 13:34:28;;;;;;;8.40;8.00;;;12.40;99.90;;;;;;4965577;28;20221;-83
2023/03/10 13:37:02;;;;;;;8.23;7.80;;;12.40;99.90;;;;;;4973046;28;20223;-78
2023/03/10 13:39:29;;;;;;;8.27;7.87;;;12.50;99.90;;;;;;4965983;28;20546;-78
2023/03/10 13:41:59;;;;;;;9.10;8.60;;;12.50;99.90;;;;;;4963244;28;20369;-78
2023/03/10 13:44:29;;;;;;;8.67;8.17;;;12.50;99.90;;;;;;4962441;28;20290;-79
2023/03/10 13:46:59;;;;;;;7.97;7.57;;;12.40;99.90;;;;;;4960390;28;20210;-78
2023/03/10 13:49:30;;;;;;;8.23;7.77;;;12.40;99.90;;;;;;4969282;28;20285;-78
2023/03/10 13:51:58;;;;;;;8.10;7.70;;;12.40;99.90;;;;;;4968553;28;20223;-78
2023/03/10 13:54:27;;;;;;;8.17;7.67;;;12.40;99.90;;;;;;4967903;28;20314;-78
2023/03/10 13:56:57;;;;;;;8.20;7.70;;;12.40;99.90;;;;;;4972126;28;20186;-78
2023/03/10 13:59:28;;;;;;;7.70;7.20;;;12.20;99.90;;;;;;4964300;28;20198;-78
2023/03/10 14:01:57;;;;;;;8.17;7.70;;;12.10;99.90;;;;;;4960647;28;20233;-78
2023/03/10 14:04:43;;;;;;;8.23;7.80;;;11.90;99.90;;;;;;4954264;28;20730;-77
2023/03/10 14:07:12;;;;;;;8.60;8.00;;;11.70;99.90;;;;;;4960694;28;20261;-78
2023/03/10 14:09:39;;;;;;;7.67;7.27;;;11.60;99.90;;;;;;4969002;28;20205;-79
2023/03/10 14:12:07;;;;;;;8.23;7.83;;;11.50;99.90;;;;;;4967120;28;20219;-83
2023/03/10 14:14:37;;;;;;;8.00;7.60;;;11.40;99.90;;;;;;4963299;28;20349;-84
2023/03/10 14:17:05;;;;;;;8.13;7.73;;;11.20;99.90;;;;;;4960101;28;20691;-78
2023/03/10 14:19:47;;;;;;;8.13;7.73;;;11.20;99.90;;;;;;4953985;28;20265;-78
2023/03/10 14:22:28;;;;;;;8.40;8.00;;;11.20;99.90;;;;;;4941287;28;20228;-77
2023/03/10 14:24:55;;;;;;;8.30;7.90;;;11.10;99.90;;;;;;4942240;28;20206;-78
2023/03/10 14:27:24;;;;;;;8.20;7.80;;;11.30;99.90;;;;;;4941060;28;20588;-78
2023/03/10 14:29:54;;;;;;;8.23;7.83;;;11.30;99.90;;;;;;4940760;28;20202;-78
2023/03/10 14:32:22;;;;;;;8.20;7.80;;;11.50;99.90;;;;;;4940788;28;20229;-78
2023/03/10 14:34:49;;;;;;;8.47;8.07;;;11.50;99.90;;;;;;4947661;28;20229;-78
2023/03/10 14:37:16;;;;;;;8.40;7.90;;;11.50;99.90;;;;;;4960278;28;20206;-81
2023/03/10 14:39:43;;;;;;;8.37;7.87;;;11.50;99.90;;;;;;4959311;28;20234;-85
2023/03/10 14:42:19;;;;;;;8.27;7.87;;;11.50;99.90;;;;;;4959019;28;20227;-83
2023/03/10 14:44:48;;;;;;;8.43;7.93;;;11.50;99.90;;;;;;4980048;28;20209;-84
2023/03/10 14:47:16;;;;;;;8.23;7.77;;;11.50;99.90;;;;;;4954979;28;20222;-84
2023/03/10 14:49:43;;;;;;;7.83;7.43;;;11.30;99.90;;;;;;4954046;28;20634;-85
2023/03/10 14:52:14;;;;;;;8.30;7.80;;;11.20;99.90;;;;;;4941099;28;20218;-84
2023/03/10 14:54:41;;;;;;;8.17;7.67;;;11.20;99.90;;;;;;4952001;28;20284;-85
2023/03/10 14:57:10;;;;;;;7.80;7.40;;;11.10;99.90;;;;;;4951085;28;20200;-77
2023/03/10 14:59:36;;;;;;;8.43;7.93;;;11.00;99.90;;;;;;4946269;28;20260;-78
2023/03/10 15:02:08;;;;;;;8.33;7.83;;;10.90;99.90;;;;;;4949589;28;20225;-78
2023/03/10 15:04:36;;;;;;;8.40;7.80;;;10.70;99.90;;;;;;4947270;28;20220;-77
2023/03/10 15:07:03;;;;;;;8.10;7.70;;;10.60;99.90;;;;;;4950449;28;20240;-78
2023/03/10 15:09:30;;;;;;;8.30;7.80;;;10.50;99.90;;;;;;4952359;28;20666;-78
2023/03/10 15:11:58;;;;;;;8.23;7.73;;;10.30;99.90;;;;;;4947305;28;20219;-77
2023/03/10 15:14:25;;;;;;;8.00;7.60;;;10.20;99.90;;;;;;4941219;28;20231;-78
2023/03/10 15:16:54;;;;;;;8.17;7.73;;;10.10;99.90;;;;;;4947816;28;20227;-78
2023/03/10 15:19:23;;;;;;;8.70;8.20;;;10.00;99.90;;;;;;4949105;28;20199;-78
2023/03/10 15:21:51;;;;;;;8.90;8.30;;;9.80;99.90;;;;;;4950346;28;20657;-77
2023/03/10 15:24:19;;;;;;;8.53;8.10;;;9.80;99.90;;;;;;4951542;28;20250;-77
2023/03/10 15:26:47;;;;;;;8.60;8.10;;;9.70;99.90;;;;;;4951861;28;20215;-79
2023/03/10 15:29:15;;;;;;;8.70;8.20;;;9.70;99.90;;;;;;4941698;28;20187;-77
2023/03/10 15:31:41;;;;;;;8.10;7.70;;;9.60;99.90;;;;;;4954847;28;20289;-77
2023/03/10 15:34:08;;;;;;;8.40;7.90;;;9.40;99.90;;;;;;4950876;28;20297;-78
2023/03/10 15:36:36;;;;;;;8.20;7.80;;;9.30;99.90;;;;;;4949376;28;20214;-77
2023/03/10 15:39:04;;;;;;;8.60;8.10;;;9.20;99.90;;;;;;4952863;28;20640;-84
2023/03/10 15:41:34;;;;;;;8.90;8.40;;;9.10;99.90;;;;;;4945729;28;20601;-83
2023/03/10 15:44:01;;;;;;;8.40;7.90;;;9.10;99.90;;;;;;4953094;28;20206;-84
2023/03/10 15:46:28;;;;;;;8.80;8.30;;;9.20;99.90;;;;;;4949964;28;20475;-86
2023/03/10 15:48:55;;;;;;;8.90;8.30;;;9.30;99.90;;;;;;4951932;28;20592;-77
2023/03/10 15:51:22;;;;;;;8.80;8.20;;;9.40;99.90;;;;;;4951707;28;20227;-78
2023/03/10 15:53:49;;;;;;;8.77;8.17;;;9.30;99.90;;;;;;4951705;28;20214;-78
2023/03/10 15:56:17;;;;;;;8.80;8.20;;;9.20;99.90;;;;;;4949204;28;20222;-77
2023/03/10 15:58:44;;;;;;;8.90;8.20;;;9.20;99.90;;;;;;4952743;28;20198;-77
2023/03/10 16:01:15;;;;;;;9.13;8.27;;;9.20;99.90;;;;;;4949829;28;20293;-78
2023/03/10 16:03:42;;;;;;;9.10;8.50;;;9.20;99.90;;;;;;4952995;28;20206;-82